Time;durP1;ratioP1;P1;durP2;ratioP2;P2;SDS_P1;SDS_P2;PMS_P1;PMS_P2;Temp;Humidity;BMP_temperature;BMP_pressure;BME280_temperature;BME280_humidity;BME280_pressure;Samples;Min_cycle;Max_cycle;Signal;HPM_P1;HPM_P2
2023/12/09 00:02:14;;;;;;;68.35;19.05;;;;;;;1.85;62.73;100915.66;5007154;28;20782;-68
2023/12/09 00:04:40;;;;;;;72.63;20.63;;;;;;;1.90;62.64;100912.19;5019955;28;20634;-68
2023/12/09 00:07:05;;;;;;;63.70;19.00;;;;;;;2.02;62.81;100920.75;5012461;28;20034;-67
2023/12/09 00:09:31;;;;;;;90.47;18.40;;;;;;;1.96;62.78;100918.22;5007744;28;20587;-67
2023/12/09 00:11:56;;;;;;;79.68;20.50;;;;;;;1.87;63.49;100914.81;5011006;28;20450;-67
2023/12/09 00:14:22;;;;;;;109.32;21.40;;;;;;;1.91;63.37;100918.25;5009746;28;20941;-67
2023/12/09 00:16:47;;;;;;;97.28;21.75;;;;;;;1.55;64.48;100921.75;4994390;28;20033;-67
2023/12/09 00:19:13;;;;;;;69.70;19.13;;;;;;;1.85;63.65;100928.56;5010114;28;20187;-67
2023/12/09 00:21:38;;;;;;;96.45;18.08;;;;;;;1.88;63.81;100928.53;5007015;28;20065;-67
2023/12/09 00:24:04;;;;;;;52.20;18.45;;;;;;;1.81;64.62;100929.44;5010937;28;20124;-67
2023/12/09 00:26:30;;;;;;;70.65;21.73;;;;;;;1.75;64.38;100922.56;5008645;28;20037;-67
2023/12/09 00:28:56;;;;;;;65.03;21.83;;;;;;;1.96;64.04;100913.06;5009399;28;20042;-65
2023/12/09 00:31:22;;;;;;;76.32;21.33;;;;;;;1.97;63.39;100912.19;5026637;28;20029;-65
2023/12/09 00:33:47;;;;;;;90.15;20.15;;;;;;;1.98;63.89;100913.91;5005462;28;20034;-66
2023/12/09 00:36:13;;;;;;;64.03;19.80;;;;;;;2.03;64.00;100918.19;5008646;28;20812;-67
2023/12/09 00:38:39;;;;;;;54.30;19.58;;;;;;;2.00;64.08;100917.31;5007730;28;20053;-67
2023/12/09 00:41:05;;;;;;;55.15;20.13;;;;;;;2.07;63.58;100912.16;5011466;28;20847;-67
2023/12/09 00:43:31;;;;;;;75.25;21.17;;;;;;;1.73;65.53;100911.41;5006927;28;20041;-66
2023/12/09 00:45:57;;;;;;;61.03;19.38;;;;;;;1.80;65.51;100913.09;5010636;28;20041;-67
2023/12/09 00:48:22;;;;;;;66.65;21.98;;;;;;;1.86;65.13;100907.94;5008933;28;20042;-65
2023/12/09 00:50:48;;;;;;;52.92;19.35;;;;;;;2.10;64.53;100911.28;4991959;28;20040;-64
2023/12/09 00:53:13;;;;;;;44.65;19.10;;;;;;;2.40;63.50;100911.97;5008692;28;20488;-67
2023/12/09 00:55:39;;;;;;;78.47;20.80;;;;;;;2.00;64.58;100912.16;5006928;28;20071;-65
2023/12/09 00:58:04;;;;;;;78.97;19.27;;;;;;;2.22;64.08;100908.66;5009537;28;20053;-66
2023/12/09 01:00:30;;;;;;;56.80;18.15;;;;;;;2.10;64.59;100921.59;5007658;28;20055;-67
2023/12/09 01:02:55;;;;;;;80.00;19.23;;;;;;;2.17;64.57;100922.41;5010863;28;20033;-68
2023/12/09 01:05:21;;;;;;;70.78;18.80;;;;;;;2.12;65.04;100918.13;5008969;28;20754;-68
2023/12/09 01:07:46;;;;;;;68.40;20.70;;;;;;;2.45;63.54;100920.59;5006130;28;20227;-68
2023/12/09 01:10:12;;;;;;;61.78;18.83;;;;;;;2.56;63.29;100918.78;5011036;28;20052;-68
2023/12/09 01:12:37;;;;;;;62.88;19.83;;;;;;;2.56;63.05;100923.97;5006444;28;20087;-68
2023/12/09 01:15:03;;;;;;;54.38;19.20;;;;;;;2.63;62.90;100927.34;5012211;28;20033;-69
2023/12/09 01:17:29;;;;;;;62.25;18.67;;;;;;;2.63;62.97;100917.88;5006564;28;20512;-68
2023/12/09 01:19:54;;;;;;;48.78;17.23;;;;;;;2.69;62.85;100917.84;5010323;28;20056;-68
2023/12/09 01:22:20;;;;;;;68.28;20.02;;;;;;;2.60;62.98;100919.63;5009518;28;20026;-68
2023/12/09 01:24:46;;;;;;;56.75;18.05;;;;;;;2.75;62.96;100915.22;5006675;28;22086;-68
2023/12/09 01:27:11;;;;;;;53.78;18.75;;;;;;;2.77;62.51;100908.31;5006413;28;20034;-68
2023/12/09 01:29:37;;;;;;;53.83;17.17;;;;;;;2.71;63.24;100913.53;5006203;28;20065;-69
2023/12/09 01:32:03;;;;;;;64.30;18.45;;;;;;;2.77;62.92;100916.06;5009107;28;20115;-69
2023/12/09 01:34:28;;;;;;;52.75;18.00;;;;;;;2.84;62.71;100919.44;4987171;28;20068;-68
2023/12/09 01:36:54;;;;;;;52.63;17.73;;;;;;;2.60;63.36;100915.34;5025469;28;20118;-68
2023/12/09 01:39:20;;;;;;;61.15;18.08;;;;;;;2.83;63.31;100919.47;5007556;28;20064;-68
2023/12/09 01:41:45;;;;;;;53.30;16.23;;;;;;;2.81;63.29;100916.06;5008235;28;20029;-68
2023/12/09 01:44:11;;;;;;;50.55;19.77;;;;;;;2.94;63.27;100905.63;5006811;28;20050;-68
2023/12/09 01:46:38;;;;;;;55.30;16.85;;;;;;;2.97;62.88;100904.72;5007646;28;20384;-68
2023/12/09 01:49:05;;;;;;;53.13;16.30;;;;;;;3.07;62.90;100911.56;4984989;28;20124;-68
2023/12/09 01:51:32;;;;;;;59.92;18.42;;;;;;;3.02;62.68;100909.84;5013157;28;20041;-68
2023/12/09 01:53:58;;;;;;;55.15;17.27;;;;;;;3.07;62.99;100906.38;5009869;28;20586;-69
2023/12/09 01:56:24;;;;;;;52.55;17.60;;;;;;;2.74;64.74;100892.84;5009353;28;20025;-68
2023/12/09 01:58:49;;;;;;;63.10;18.27;;;;;;;2.70;64.27;100896.31;5005693;28;20037;-68
2023/12/09 02:01:15;;;;;;;54.08;18.63;;;;;;;2.99;63.40;100900.41;5009594;28;20498;-68
2023/12/09 02:03:41;;;;;;;41.85;15.98;;;;;;;3.07;63.31;100901.22;5005067;28;20065;-68
2023/12/09 02:06:07;;;;;;;50.92;17.58;;;;;;;3.16;63.29;100901.13;5008399;28;20223;-68
2023/12/09 02:08:33;;;;;;;50.40;17.17;;;;;;;3.05;63.76;100902.09;5006860;28;20041;-68
2023/12/09 02:11:23;;;;;;;48.50;16.55;;;;;;;3.22;63.08;100889.03;5009423;28;20026;-67
2023/12/09 02:14:10;;;;;;;72.18;17.63;;;;;;;3.11;63.54;100892.59;5011604;28;20857;-67
2023/12/09 02:16:59;;;;;;;62.60;18.60;;;;;;;3.25;63.30;100889.88;5005344;28;20025;-68
2023/12/09 02:19:26;;;;;;;53.45;17.35;;;;;;;3.24;62.90;100897.63;5007170;28;20066;-67
2023/12/09 02:21:59;;;;;;;50.05;16.70;;;;;;;3.32;63.07;100896.72;5007224;28;20035;-69
2023/12/09 02:24:25;;;;;;;43.45;17.40;;;;;;;3.19;63.56;100890.78;5006046;28;20037;-69
2023/12/09 02:26:52;;;;;;;56.97;18.58;;;;;;;2.82;65.09;100894.53;5004857;28;20476;-70
2023/12/09 02:29:19;;;;;;;60.20;19.25;;;;;;;2.84;64.56;100893.63;5006807;28;20076;-69
2023/12/09 02:31:48;;;;;;;54.63;17.80;;;;;;;3.11;64.54;100897.75;5006686;28;20075;-67
2023/12/09 02:34:15;;;;;;;69.45;17.55;;;;;;;2.96;64.94;100896.13;5006418;28;20061;-67
2023/12/09 02:36:44;;;;;;;54.10;18.88;;;;;;;3.07;64.50;100896.06;5005639;28;20766;-68
2023/12/09 02:39:12;;;;;;;58.75;16.92;;;;;;;3.12;64.39;100896.88;5008728;28;20060;-63
2023/12/09 02:41:40;;;;;;;55.65;17.67;;;;;;;3.34;63.53;100899.28;5021673;28;20022;-62
2023/12/09 02:44:07;;;;;;;44.45;16.75;;;;;;;3.27;64.04;100882.09;5008370;28;20048;-63
2023/12/09 02:46:32;;;;;;;53.95;16.23;;;;;;;3.35;63.64;100876.00;5019013;28;20500;-63
2023/12/09 02:49:01;;;;;;;58.53;17.88;;;;;;;3.40;63.43;100863.03;5008103;28;20045;-62
2023/12/09 02:51:26;;;;;;;39.25;15.57;;;;;;;3.48;63.52;100852.63;5009302;28;20029;-68
2023/12/09 02:53:52;;;;;;;54.45;17.75;;;;;;;3.40;63.06;100852.72;5006742;28;21181;-69
2023/12/09 02:56:17;;;;;;;66.10;17.23;;;;;;;3.36;63.43;100851.91;5007944;28;20021;-68
2023/12/09 02:58:42;;;;;;;45.88;16.02;;;;;;;3.45;63.10;100850.94;5004453;28;20037;-70
2023/12/09 03:01:08;;;;;;;67.05;18.58;;;;;;;2.83;65.26;100855.78;4999314;28;20630;-68
2023/12/09 03:03:33;;;;;;;67.30;17.52;;;;;;;3.06;64.79;100850.44;4999495;28;20041;-66
2023/12/09 03:05:59;;;;;;;60.72;16.52;;;;;;;3.17;64.20;100850.34;5007836;28;20025;-66
2023/12/09 03:08:24;;;;;;;53.88;15.75;;;;;;;3.11;64.31;100851.25;5008102;28;20459;-68
2023/12/09 03:10:50;;;;;;;49.15;16.33;;;;;;;3.40;63.86;100842.38;5005925;28;20151;-67
2023/12/09 03:13:15;;;;;;;55.42;15.57;;;;;;;3.53;63.50;100838.78;5006728;28;20103;-67
2023/12/09 03:15:41;;;;;;;47.28;17.02;;;;;;;3.29;63.96;100845.09;5004591;28;20108;-68
2023/12/09 03:18:06;;;;;;;45.95;14.98;;;;;;;3.41;63.44;100841.50;5013865;28;20424;-67
2023/12/09 03:20:32;;;;;;;50.15;15.43;;;;;;;3.43;63.90;100844.94;5005193;28;20389;-68
2023/12/09 03:22:57;;;;;;;38.78;14.85;;;;;;;3.53;63.51;100832.75;5004012;28;20107;-69
2023/12/09 03:25:22;;;;;;;38.50;15.55;;;;;;;3.65;63.05;100827.47;5006869;28;20135;-70
2023/12/09 03:27:48;;;;;;;45.45;15.25;;;;;;;3.41;63.70;100826.00;5004316;28;20464;-69
2023/12/09 03:30:13;;;;;;;51.60;15.45;;;;;;;3.51;63.47;100821.59;5011863;28;20037;-75
2023/12/09 03:32:39;;;;;;;63.28;15.55;;;;;;;3.59;63.07;100833.56;5008374;28;20065;-76
2023/12/09 03:35:06;;;;;;;50.70;17.10;;;;;;;3.39;64.00;100825.16;5013596;28;20021;-75
2023/12/09 03:37:32;;;;;;;54.05;16.70;;;;;;;3.44;63.80;100823.38;5011340;28;20415;-75
2023/12/09 03:39:58;;;;;;;37.83;13.88;;;;;;;3.65;63.12;100816.25;5008087;28;20037;-74
2023/12/09 03:42:25;;;;;;;49.35;15.55;;;;;;;3.55;63.25;100821.53;4992387;28;20048;-74
2023/12/09 03:44:50;;;;;;;44.58;15.88;;;;;;;3.37;63.78;100814.84;5008598;28;20044;-74
2023/12/09 03:47:16;;;;;;;46.83;15.95;;;;;;;3.66;63.51;100823.16;5028032;28;20037;-76
2023/12/09 03:49:42;;;;;;;46.33;16.40;;;;;;;3.48;64.19;100814.72;4991884;28;20064;-71
2023/12/09 03:52:07;;;;;;;53.47;16.77;;;;;;;3.53;63.81;100818.09;5014747;28;20025;-75
2023/12/09 03:54:33;;;;;;;61.72;16.45;;;;;;;3.51;63.49;100813.84;5012447;28;20041;-74
2023/12/09 03:56:58;;;;;;;55.00;16.60;;;;;;;3.41;64.38;100823.44;5010305;28;20055;-73
2023/12/09 03:59:24;;;;;;;47.80;15.05;;;;;;;3.12;65.18;100831.44;5016481;28;20045;-74
2023/12/09 04:01:50;;;;;;;53.47;14.32;;;;;;;3.35;64.75;100824.34;5000366;28;20038;-75
2023/12/09 04:04:16;;;;;;;41.00;14.15;;;;;;;3.74;63.92;100821.34;5011511;28;20052;-71
2023/12/09 04:06:42;;;;;;;32.60;13.70;;;;;;;3.79;63.14;100819.53;5006966;28;20033;-72
2023/12/09 04:09:09;;;;;;;51.03;13.93;;;;;;;3.78;63.20;100813.53;5011488;28;20040;-74
2023/12/09 04:11:35;;;;;;;38.25;15.02;;;;;;;3.84;63.27;100811.72;5012347;28;20043;-76
2023/12/09 04:14:00;;;;;;;48.25;14.98;;;;;;;3.86;62.89;100805.66;5007709;28;20038;-69
2023/12/09 04:16:26;;;;;;;45.58;15.00;;;;;;;3.66;63.86;100807.63;5026192;28;20021;-70
2023/12/09 04:18:51;;;;;;;51.55;15.82;;;;;;;3.85;62.98;100803.94;5007088;28;20100;-71
2023/12/09 04:21:17;;;;;;;37.08;13.38;;;;;;;3.84;62.92;100797.06;5010489;28;20206;-70
2023/12/09 04:23:44;;;;;;;38.80;12.48;;;;;;;3.81;62.81;100802.28;5007102;28;20072;-72
2023/12/09 04:26:09;;;;;;;56.25;13.95;;;;;;;3.74;62.79;100808.41;5011279;28;20030;-69
2023/12/09 04:28:35;;;;;;;40.75;14.50;;;;;;;3.61;64.33;100809.44;5009106;28;20122;-69
2023/12/09 04:31:00;;;;;;;53.13;14.13;;;;;;;3.69;63.51;100812.75;5008611;28;20037;-68
2023/12/09 04:33:25;;;;;;;46.75;13.70;;;;;;;3.83;63.34;100807.41;5010583;28;20041;-68
2023/12/09 04:35:51;;;;;;;35.65;13.07;;;;;;;3.73;63.33;100810.13;5007379;28;20029;-73
2023/12/09 04:38:16;;;;;;;39.13;13.75;;;;;;;3.54;64.17;100809.50;5010681;28;20041;-72
2023/12/09 04:40:42;;;;;;;53.17;14.43;;;;;;;3.53;64.05;100810.34;5005462;28;20044;-73
2023/12/09 04:43:08;;;;;;;31.95;13.80;;;;;;;3.76;63.71;100799.75;5011431;28;20479;-70
2023/12/09 04:45:34;;;;;;;38.35;14.13;;;;;;;3.75;63.84;100802.34;5010174;28;20045;-71
2023/12/09 04:47:59;;;;;;;35.28;13.40;;;;;;;3.86;63.37;100790.13;5005992;28;20056;-68
2023/12/09 04:50:25;;;;;;;38.00;13.60;;;;;;;3.77;63.14;100795.44;5011752;28;20098;-69
2023/12/09 04:52:52;;;;;;;47.00;14.45;;;;;;;3.76;63.81;100798.88;5007340;28;20415;-70
2023/12/09 04:55:18;;;;;;;55.35;13.23;;;;;;;3.67;63.83;100801.56;5017005;28;20048;-69
2023/12/09 04:57:43;;;;;;;48.78;12.52;;;;;;;3.80;63.50;100800.56;5004448;28;20573;-67
2023/12/09 05:00:10;;;;;;;48.78;13.85;;;;;;;3.44;64.35;100797.53;5012072;28;20080;-67
2023/12/09 05:02:36;;;;;;;36.95;12.38;;;;;;;3.76;63.84;100793.69;5009401;28;20037;-69
2023/12/09 05:05:04;;;;;;;46.30;15.00;;;;;;;3.75;63.83;100792.84;5007299;28;20111;-68
2023/12/09 05:07:30;;;;;;;45.40;14.68;;;;;;;3.58;64.46;100800.84;5008196;28;20118;-69
2023/12/09 05:09:56;;;;;;;40.28;12.55;;;;;;;3.47;64.64;100801.81;5006086;28;20029;-69
2023/12/09 05:12:22;;;;;;;33.50;12.40;;;;;;;3.77;63.61;100804.03;5011353;28;20056;-71
2023/12/09 05:14:48;;;;;;;33.33;11.88;;;;;;;3.77;63.76;100809.22;5005701;28;20551;-71
2023/12/09 05:17:14;;;;;;;36.42;12.25;;;;;;;3.72;63.76;100794.66;5011524;28;20083;-70
2023/12/09 05:19:40;;;;;;;42.42;14.32;;;;;;;3.57;64.62;100793.94;5014285;28;20088;-69
2023/12/09 05:22:06;;;;;;;33.47;12.98;;;;;;;3.76;63.99;100793.69;5009176;28;20472;-72
2023/12/09 05:24:31;;;;;;;35.17;12.88;;;;;;;3.77;63.85;100785.09;4989854;28;20404;-71
2023/12/09 05:26:57;;;;;;;35.17;12.40;;;;;;;3.78;63.96;100784.19;5006669;28;20123;-69
2023/12/09 05:29:23;;;;;;;27.65;12.35;;;;;;;3.76;63.95;100781.66;5008057;28;20102;-71
2023/12/09 05:31:48;;;;;;;32.47;12.30;;;;;;;3.73;64.14;100786.00;5006639;28;20037;-71
2023/12/09 05:34:14;;;;;;;31.58;11.10;;;;;;;3.79;64.15;100783.34;5009501;28;20543;-71
2023/12/09 05:36:39;;;;;;;36.72;11.70;;;;;;;3.58;64.73;100785.34;4992352;28;20064;-71
2023/12/09 05:39:05;;;;;;;41.22;13.30;;;;;;;3.78;63.85;100782.50;5006056;28;20146;-69
2023/12/09 05:41:31;;;;;;;39.05;12.98;;;;;;;3.63;64.71;100786.97;5008865;28;20054;-70
2023/12/09 05:43:56;;;;;;;37.60;12.25;;;;;;;3.77;63.93;100774.75;5012836;28;20429;-70
2023/12/09 05:46:22;;;;;;;31.13;12.10;;;;;;;3.67;64.45;100767.97;5009573;28;20063;-70
2023/12/09 05:48:48;;;;;;;36.08;12.10;;;;;;;3.78;64.39;100760.94;5004092;28;20044;-70
2023/12/09 05:51:14;;;;;;;55.35;12.80;;;;;;;3.89;63.90;100763.38;5010631;28;20040;-71
2023/12/09 05:53:40;;;;;;;33.40;11.15;;;;;;;3.83;64.09;100755.69;5009618;28;20045;-69
2023/12/09 05:56:09;;;;;;;36.03;11.98;;;;;;;3.80;64.33;100749.69;5005848;28;20531;-68
2023/12/09 05:58:34;;;;;;;45.72;12.52;;;;;;;3.70;64.65;100755.03;5008532;28;20543;-69
2023/12/09 06:01:00;;;;;;;39.38;12.73;;;;;;;3.73;64.55;100758.41;5006830;28;20633;-72
2023/12/09 06:03:25;;;;;;;37.30;11.25;;;;;;;3.50;65.68;100750.13;5009929;28;20033;-72
2023/12/09 06:05:51;;;;;;;29.10;11.43;;;;;;;3.83;64.52;100756.56;5001409;28;20044;-71
2023/12/09 06:08:17;;;;;;;23.38;11.32;;;;;;;3.67;64.96;100758.53;5009602;28;20037;-72
2023/12/09 06:10:42;;;;;;;25.85;10.93;;;;;;;3.63;65.35;100756.84;5008468;28;20064;-68
2023/12/09 06:13:07;;;;;;;29.40;10.40;;;;;;;3.53;65.92;100761.25;5004337;28;20106;-70
2023/12/09 06:15:33;;;;;;;33.20;10.40;;;;;;;3.43;65.89;100758.81;5009946;28;20026;-71
2023/12/09 06:17:58;;;;;;;35.47;11.70;;;;;;;3.60;65.71;100764.63;5004973;28;20109;-69
2023/12/09 06:20:24;;;;;;;36.72;9.82;;;;;;;3.62;65.27;100770.63;5010323;28;20644;-70
2023/12/09 06:22:49;;;;;;;44.38;12.82;;;;;;;3.54;65.56;100762.97;5004511;28;20542;-71
2023/12/09 06:25:15;;;;;;;37.85;10.73;;;;;;;3.68;65.25;100765.38;5010681;28;20105;-71
2023/12/09 06:27:40;;;;;;;29.95;10.90;;;;;;;3.75;65.18;100761.84;5006335;28;20151;-71
2023/12/09 06:30:08;;;;;;;34.53;11.05;;;;;;;3.77;65.08;100761.81;5005764;28;20155;-71
2023/12/09 06:32:33;;;;;;;42.20;11.98;;;;;;;3.66;65.41;100755.94;4984620;28;20593;-70
2023/12/09 06:34:59;;;;;;;25.55;10.75;;;;;;;3.74;65.01;100754.13;5004993;28;20053;-69
2023/12/09 06:37:24;;;;;;;32.88;11.02;;;;;;;3.70;65.36;100748.13;5008954;28;20072;-68
2023/12/09 06:39:49;;;;;;;31.05;11.02;;;;;;;3.51;65.27;100749.22;5003781;28;20042;-68
2023/12/09 06:42:15;;;;;;;33.00;10.25;;;;;;;3.45;65.95;100762.22;5010490;28;20494;-69
2023/12/09 06:44:41;;;;;;;35.55;9.88;;;;;;;3.70;64.92;100752.44;5007389;28;20641;-68
2023/12/09 06:47:06;;;;;;;31.10;10.70;;;;;;;3.49;65.53;100754.44;5006603;28;21141;-69
2023/12/09 06:49:32;;;;;;;42.70;12.27;;;;;;;3.75;64.94;100753.22;5007407;28;20049;-68
2023/12/09 06:51:57;;;;;;;32.65;9.93;;;;;;;3.62;64.91;100754.28;5005186;28;20045;-67
2023/12/09 06:54:23;;;;;;;32.20;8.23;;;;;;;3.69;64.83;100748.13;5009221;28;20044;-67
2023/12/09 06:56:48;;;;;;;36.28;9.85;;;;;;;3.68;64.44;100741.28;5003215;28;20041;-70
2023/12/09 06:59:14;;;;;;;29.27;8.70;;;;;;;3.21;66.64;100737.53;5008771;28;20044;-67
2023/12/09 07:01:39;;;;;;;26.00;9.40;;;;;;;3.74;64.91;100743.78;5008833;28;20826;-69
2023/12/09 07:04:05;;;;;;;35.85;10.52;;;;;;;3.71;64.92;100749.81;5002872;28;20069;-68
2023/12/09 07:06:30;;;;;;;34.75;10.18;;;;;;;3.55;65.22;100737.97;5009679;28;20045;-67
2023/12/09 07:08:59;;;;;;;34.55;9.15;;;;;;;3.48;65.21;100739.78;5001580;28;20046;-69
2023/12/09 07:11:24;;;;;;;28.85;10.25;;;;;;;3.62;65.56;100733.59;4992435;28;20064;-68
2023/12/09 07:13:50;;;;;;;25.52;8.80;;;;;;;3.34;65.97;100728.78;5004026;28;20072;-72
2023/12/09 07:16:16;;;;;;;28.23;9.70;;;;;;;3.63;65.31;100727.53;5009082;28;20423;-72
2023/12/09 07:18:46;;;;;;;35.13;10.63;;;;;;;3.52;65.34;100719.94;5011159;28;20850;-73
2023/12/09 07:21:15;;;;;;;24.48;8.73;;;;;;;2.97;67.49;100711.09;5008982;28;20037;-72
2023/12/09 07:23:41;;;;;;;28.85;8.63;;;;;;;3.25;66.76;100709.06;5011345;28;20072;-73
2023/12/09 07:26:07;;;;;;;27.52;8.73;;;;;;;3.28;66.14;100706.41;5006026;28;20034;-67
2023/12/09 07:28:34;;;;;;;27.95;8.50;;;;;;;3.66;64.77;100710.25;5012270;28;20053;-69
2023/12/09 07:30:59;;;;;;;28.30;9.23;;;;;;;3.67;64.39;100711.09;5006646;28;20531;-66
2023/12/09 07:33:25;;;;;;;34.78;7.53;;;;;;;3.47;65.24;100712.25;5010436;28;20033;-65
2023/12/09 07:35:51;;;;;;;19.63;7.25;;;;;;;3.10;65.49;100707.50;5004604;28;20214;-66
2023/12/09 07:38:17;;;;;;;32.47;9.60;;;;;;;3.50;65.35;100712.19;5012604;28;20134;-65
2023/12/09 07:40:43;;;;;;;28.33;8.15;;;;;;;3.49;65.16;100701.88;5009317;28;20519;-66
2023/12/09 07:43:09;;;;;;;28.30;8.32;;;;;;;3.41;65.02;100703.72;5007627;28;20704;-64
2023/12/09 07:45:35;;;;;;;29.23;8.55;;;;;;;3.53;64.22;100701.81;5008312;28;20034;-65
2023/12/09 07:48:01;;;;;;;34.30;9.07;;;;;;;3.41;65.35;100701.16;5001976;28;20037;-65
2023/12/09 07:50:26;;;;;;;27.02;8.18;;;;;;;3.34;65.12;100700.38;5011246;28;20033;-63
2023/12/09 07:52:52;;;;;;;33.35;9.55;;;;;;;3.54;64.82;100694.94;5003373;28;20689;-67
2023/12/09 07:55:17;;;;;;;25.05;8.93;;;;;;;3.27;65.13;100691.81;5008985;28;20029;-65
2023/12/09 07:57:43;;;;;;;22.60;6.82;;;;;;;3.83;63.87;100686.78;5007479;28;20411;-66
2023/12/09 08:00:09;;;;;;;26.13;8.48;;;;;;;3.66;64.30;100691.31;5001403;28;20076;-66
2023/12/09 08:02:35;;;;;;;27.05;8.70;;;;;;;3.62;64.57;100697.41;5006973;28;20045;-65
2023/12/09 08:05:00;;;;;;;35.58;8.63;;;;;;;3.37;65.42;100705.50;5004752;28;20038;-67
2023/12/09 08:07:26;;;;;;;26.92;8.02;;;;;;;3.60;64.76;100697.41;5007414;28;20030;-68
2023/12/09 08:09:52;;;;;;;32.78;8.18;;;;;;;3.51;65.10;100690.66;5004822;28;20055;-64
2023/12/09 08:12:17;;;;;;;20.63;6.80;;;;;;;3.94;63.83;100684.88;5006678;28;20389;-66
2023/12/09 08:14:42;;;;;;;25.25;8.70;;;;;;;4.01;63.37;100676.13;5007391;28;20060;-66
2023/12/09 08:17:08;;;;;;;33.95;8.32;;;;;;;4.12;63.01;100675.09;5003202;28;20036;-66
2023/12/09 08:19:34;;;;;;;26.83;7.63;;;;;;;3.80;63.98;100671.28;5007203;28;20041;-66
2023/12/09 08:21:59;;;;;;;21.98;7.80;;;;;;;4.00;63.24;100670.97;5004267;28;20051;-66
2023/12/09 08:24:25;;;;;;;21.00;8.15;;;;;;;3.93;63.73;100675.38;5006114;28;20041;-66
2023/12/09 08:26:51;;;;;;;26.90;7.63;;;;;;;3.83;63.97;100680.72;5022324;28;20898;-66
2023/12/09 08:29:16;;;;;;;35.05;8.25;;;;;;;4.00;63.15;100673.56;5003254;28;20033;-65
2023/12/09 08:31:46;;;;;;;25.23;7.68;;;;;;;4.22;62.93;100674.91;4992000;28;20040;-66
2023/12/09 08:34:12;;;;;;;26.48;8.18;;;;;;;4.02;63.33;100667.47;4999457;28;20033;-64
2023/12/09 08:36:37;;;;;;;17.85;7.45;;;;;;;4.32;62.72;100670.47;5008399;28;20396;-65
2023/12/09 08:39:03;;;;;;;24.10;6.82;;;;;;;4.34;62.24;100663.53;5000699;28;20159;-66
2023/12/09 08:41:28;;;;;;;26.48;7.03;;;;;;;4.23;62.92;100662.88;5010729;28;20053;-66
2023/12/09 08:43:54;;;;;;;19.92;7.07;;;;;;;4.14;63.37;100666.44;5005207;28;20482;-66
2023/12/09 08:46:20;;;;;;;19.13;6.88;;;;;;;4.12;63.26;100670.78;5004569;28;20021;-65
2023/12/09 08:48:46;;;;;;;30.50;7.80;;;;;;;4.29;62.26;100664.47;5007649;28;20045;-65
2023/12/09 08:51:11;;;;;;;24.48;6.60;;;;;;;4.36;62.10;100646.25;5004205;28;20132;-65
2023/12/09 08:53:37;;;;;;;24.73;6.22;;;;;;;4.24;62.88;100645.59;5011490;28;20041;-65
2023/12/09 08:56:03;;;;;;;24.10;7.57;;;;;;;4.22;62.46;100643.03;5002822;28;20033;-65
2023/12/09 08:58:28;;;;;;;32.92;8.57;;;;;;;4.25;62.47;100640.38;5010664;28;20432;-66
2023/12/09 09:00:54;;;;;;;20.17;6.82;;;;;;;4.27;62.97;100637.78;5007790;28;20048;-66
2023/12/09 09:03:20;;;;;;;21.63;5.72;;;;;;;4.35;62.28;100641.94;5004791;28;20097;-66
2023/12/09 09:05:45;;;;;;;15.48;4.97;;;;;;;4.31;62.45;100632.50;5007566;28;20095;-66
2023/12/09 09:08:10;;;;;;;23.35;5.38;;;;;;;3.98;63.10;100621.88;5003811;28;20503;-65
2023/12/09 09:10:36;;;;;;;25.05;6.50;;;;;;;4.17;62.86;100618.97;5008671;28;20532;-66
2023/12/09 09:13:02;;;;;;;15.63;5.60;;;;;;;4.33;62.12;100624.72;5002466;28;20245;-65
2023/12/09 09:15:27;;;;;;;25.33;6.63;;;;;;;3.86;63.56;100623.81;4997925;28;20486;-65
2023/12/09 09:17:53;;;;;;;15.05;5.18;;;;;;;4.44;62.14;100627.97;5004728;28;20404;-66
2023/12/09 09:20:18;;;;;;;14.98;5.53;;;;;;;4.20;62.42;100624.09;5004311;28;20067;-65
2023/12/09 09:22:44;;;;;;;23.13;6.43;;;;;;;4.14;62.85;100629.38;5005942;28;20041;-65
2023/12/09 09:25:12;;;;;;;43.92;8.43;;;;;;;4.32;62.36;100618.72;5003102;28;20132;-66
2023/12/09 09:27:37;;;;;;;16.88;6.00;;;;;;;4.17;62.62;100619.81;5005099;28;20528;-67
2023/12/09 09:30:04;;;;;;;16.27;5.93;;;;;;;3.87;63.83;100616.00;5003689;28;20041;-65
2023/12/09 09:32:29;;;;;;;25.67;7.00;;;;;;;4.00;63.19;100614.94;5007369;28;20033;-67
2023/12/09 09:34:55;;;;;;;21.25;6.95;;;;;;;3.87;63.35;100616.00;5008068;28;20037;-66
2023/12/09 09:37:20;;;;;;;15.05;5.00;;;;;;;3.78;63.11;100600.66;4996796;28;20055;-66
2023/12/09 09:39:47;;;;;;;14.75;5.15;;;;;;;4.14;62.17;100603.50;5008647;28;20041;-66
2023/12/09 09:42:41;;;;;;;22.73;5.32;;;;;;;4.27;61.68;100588.63;5004466;28;20057;-66
2023/12/09 09:45:18;;;;;;;17.60;4.95;;;;;;;4.09;62.28;100590.66;5002525;28;20741;-65
2023/12/09 09:47:48;;;;;;;14.38;5.03;;;;;;;4.68;60.62;100584.41;5004471;28;20033;-66
2023/12/09 09:50:21;;;;;;;23.45;6.32;;;;;;;4.17;62.29;100587.94;4992769;28;20034;-67
2023/12/09 09:52:48;;;;;;;26.92;6.20;;;;;;;4.27;62.02;100584.28;5004428;28;20037;-66
2023/12/09 09:55:15;;;;;;;23.10;6.05;;;;;;;3.89;63.00;100572.88;4991340;28;20056;-67
2023/12/09 09:57:42;;;;;;;25.92;7.10;;;;;;;3.96;62.29;100569.34;5001099;28;20034;-66
2023/12/09 10:00:14;;;;;;;21.95;6.88;;;;;;;4.38;61.41;100564.25;5013047;28;20041;-65
2023/12/09 10:02:48;;;;;;;14.05;6.70;;;;;;;4.55;61.06;100553.56;5000369;28;20040;-65
2023/12/09 10:05:17;;;;;;;26.92;7.40;;;;;;;4.30;61.86;100549.78;4998004;28;20669;-65
2023/12/09 10:07:43;;;;;;;25.00;8.35;;;;;;;4.18;61.84;100543.91;5000532;28;20678;-65
2023/12/09 10:10:10;;;;;;;16.02;6.55;;;;;;;4.67;60.51;100538.66;4998485;28;20135;-66
2023/12/09 10:12:36;;;;;;;23.42;8.52;;;;;;;4.75;59.59;100529.88;5001925;28;20708;-66
2023/12/09 10:15:03;;;;;;;15.65;7.43;;;;;;;4.31;61.05;100516.09;4997865;28;20067;-65
2023/12/09 10:17:30;;;;;;;17.67;6.57;;;;;;;4.70;59.98;100518.75;4999960;28;20033;-66
2023/12/09 10:19:56;;;;;;;24.15;7.47;;;;;;;4.68;60.00;100507.59;5002526;28;20124;-65
2023/12/09 10:22:22;;;;;;;22.85;7.07;;;;;;;4.80;59.84;100504.72;4997238;28;21691;-65
2023/12/09 10:24:51;;;;;;;14.55;6.28;;;;;;;4.91;59.65;100499.34;5001352;28;20037;-66
2023/12/09 10:27:24;;;;;;;20.67;8.48;;;;;;;4.37;60.71;100492.69;4986733;28;20045;-65
2023/12/09 10:29:54;;;;;;;16.60;7.90;;;;;;;4.82;59.91;100482.22;5000547;28;20125;-65
2023/12/09 10:32:20;;;;;;;20.90;6.70;;;;;;;5.32;58.77;100466.41;4996975;28;20029;-65
2023/12/09 10:34:51;;;;;;;16.15;6.50;;;;;;;5.23;58.36;100454.56;5002084;28;20349;-65
2023/12/09 10:37:18;;;;;;;24.50;5.53;;;;;;;5.24;58.28;100445.88;4995419;28;20029;-66
2023/12/09 10:39:45;;;;;;;17.75;5.55;;;;;;;4.94;58.92;100444.03;5002424;28;20045;-65
2023/12/09 10:42:10;;;;;;;22.90;6.00;;;;;;;5.04;58.33;100448.09;4998118;28;20071;-66
2023/12/09 10:44:36;;;;;;;15.82;3.40;;;;;;;4.48;59.98;100439.88;4997714;28;20160;-64
2023/12/09 10:47:03;;;;;;;19.27;4.15;;;;;;;4.87;58.23;100437.25;4984104;28;20958;-66
2023/12/09 10:49:31;;;;;;;16.83;4.10;;;;;;;4.77;58.61;100434.88;4998800;28;20115;-65
2023/12/09 10:51:56;;;;;;;13.63;4.88;;;;;;;4.64;58.55;100425.69;5000980;28;20044;-65
2023/12/09 10:54:22;;;;;;;10.77;3.70;;;;;;;4.05;59.93;100425.22;4995318;28;20041;-65
2023/12/09 10:56:48;;;;;;;19.90;5.38;;;;;;;4.51;59.37;100426.84;5001481;28;20121;-65
2023/12/09 10:59:17;;;;;;;13.93;2.92;;;;;;;4.15;59.93;100403.47;4993714;28;20053;-65
2023/12/09 11:01:44;;;;;;;11.00;3.75;;;;;;;4.72;58.50;100397.91;5001612;28;20091;-65
2023/12/09 11:04:10;;;;;;;17.88;4.32;;;;;;;4.80;58.42;100385.59;4995316;28;20087;-66
2023/12/09 11:06:37;;;;;;;16.98;3.25;;;;;;;4.62;58.14;100373.09;5002046;28;20045;-64
2023/12/09 11:09:06;;;;;;;8.60;2.95;;;;;;;4.69;58.68;100364.28;5000250;28;20048;-66
2023/12/09 11:11:31;;;;;;;15.88;4.90;;;;;;;4.82;58.06;100363.13;4999549;28;20539;-65
2023/12/09 11:13:58;;;;;;;16.02;4.65;;;;;;;4.86;57.49;100353.56;4994639;28;20850;-66
2023/12/09 11:16:27;;;;;;;10.07;3.05;;;;;;;5.12;57.44;100352.91;4994175;28;20636;-66